createdAt,value
2023-01-24T00:00:39.357Z,41.70
2023-01-24T00:03:40.702Z,41.50
2023-01-24T00:06:42.022Z,41.60
2023-01-24T00:09:44.015Z,41.50
2023-01-24T00:12:45.260Z,41.50
2023-01-24T00:15:46.550Z,41.60
2023-01-24T00:18:48.604Z,41.70
2023-01-24T00:21:49.874Z,41.30
2023-01-24T00:24:51.744Z,41.70
2023-01-24T00:27:53.136Z,41.60
2023-01-24T00:30:54.466Z,41.60
2023-01-24T00:33:55.964Z,41.60
2023-01-24T00:36:57.343Z,41.50
2023-01-24T00:39:59.307Z,41.40
2023-01-24T00:43:01.531Z,41.50
2023-01-24T00:46:05.181Z,41.40
2023-01-24T00:49:06.454Z,41.40
2023-01-24T00:52:08.026Z,41.70
2023-01-24T00:55:11.514Z,41.80
2023-01-24T00:58:13.252Z,41.50
2023-01-24T01:01:14.492Z,41.50
2023-01-24T01:04:15.774Z,41.90
2023-01-24T01:07:17.741Z,41.50
2023-01-24T01:10:19.806Z,41.50
2023-01-24T01:13:21.056Z,41.40
2023-01-24T01:16:22.971Z,41.80
2023-01-24T01:19:24.243Z,41.60
2023-01-24T01:22:25.711Z,42.40
2023-01-24T01:25:27.868Z,41.80
2023-01-24T01:28:29.194Z,41.70
2023-01-24T01:31:30.562Z,41.60
2023-01-24T01:34:31.905Z,41.70
2023-01-24T01:37:33.170Z,41.50
2023-01-24T01:40:36.257Z,41.60
2023-01-24T01:43:57.482Z,41.80
2023-01-24T01:46:58.768Z,41.60
2023-01-24T01:50:04.070Z,41.60
2023-01-24T01:53:05.435Z,41.50
2023-01-24T01:56:10.356Z,41.50
2023-01-24T01:59:13.580Z,41.70
2023-01-24T02:02:18.312Z,41.30
2023-01-24T02:05:21.382Z,41.50
2023-01-24T02:08:23.217Z,41.40
2023-01-24T02:11:38.748Z,41.60
2023-01-24T02:14:54.803Z,41.10
2023-01-24T02:17:56.122Z,41.20
2023-01-24T02:20:57.746Z,41.40
2023-01-24T02:24:02.008Z,41.30
2023-01-24T02:27:03.881Z,41.20
2023-01-24T02:30:05.659Z,41.30
2023-01-24T02:33:11.992Z,41.60
2023-01-24T02:36:17.697Z,41.50
2023-01-24T02:39:22.432Z,41.20
2023-01-24T02:42:26.811Z,41.20
2023-01-24T02:45:30.821Z,41.20
2023-01-24T02:48:32.292Z,41.10
2023-01-24T02:51:48.251Z,41.60
2023-01-24T02:54:49.540Z,41.20
2023-01-24T02:58:06.440Z,41.50
2023-01-24T03:01:09.616Z,41.20
2023-01-24T03:04:12.059Z,41.30
2023-01-24T03:07:13.646Z,41.50
2023-01-24T03:10:20.183Z,41.30
2023-01-24T03:13:38.756Z,41.60
2023-01-24T03:16:54.738Z,41.30
2023-01-24T03:20:08.691Z,41.10
2023-01-24T03:23:24.794Z,41.30
2023-01-24T03:26:38.673Z,41.30
2023-01-24T03:29:56.003Z,41.50
2023-01-24T03:33:08.690Z,41.60
2023-01-24T03:36:19.538Z,41.20
2023-01-24T03:39:37.833Z,41.50
2023-01-24T03:42:46.985Z,41.60
2023-01-24T03:45:52.521Z,41.10
2023-01-24T03:49:05.130Z,41.40
2023-01-24T03:52:25.806Z,41.40
2023-01-24T03:55:27.018Z,41.40
2023-01-24T03:58:29.229Z,41.30
2023-01-24T04:01:31.375Z,41.20
2023-01-24T04:04:53.752Z,41.60
2023-01-24T04:07:55.449Z,41.20
2023-01-24T04:10:58.270Z,41.30
2023-01-24T04:13:59.510Z,41.40
2023-01-24T04:17:01.785Z,41.40
2023-01-24T04:20:11.957Z,41.60
2023-01-24T04:23:13.864Z,41.20
2023-01-24T04:26:15.339Z,41.40
2023-01-24T04:29:17.159Z,41.30
2023-01-24T04:32:21.135Z,41.40
2023-01-24T04:35:31.172Z,41.30
2023-01-24T04:38:34.608Z,41.70
2023-01-24T04:41:40.465Z,41.50
2023-01-24T04:44:41.825Z,41.60
2023-01-24T04:47:46.041Z,41.40
2023-01-24T04:50:49.031Z,41.40
2023-01-24T04:53:52.205Z,41.40
2023-01-24T04:56:57.342Z,41.30
2023-01-24T04:59:58.634Z,41.60
2023-01-24T05:03:00.953Z,41.40
2023-01-24T05:06:03.588Z,41.20
2023-01-24T05:09:05.608Z,41.70
2023-01-24T05:12:19.622Z,41.30
2023-01-24T05:15:23.017Z,41.30
2023-01-24T05:18:26.175Z,41.40
2023-01-24T05:21:27.701Z,41.30
2023-01-24T05:24:29.239Z,41.50
2023-01-24T05:27:30.621Z,41.70
2023-01-24T05:30:36.740Z,41.40
2023-01-24T05:33:49.212Z,42.10
2023-01-24T05:36:51.140Z,41.40
2023-01-24T05:39:52.633Z,41.50
2023-01-24T05:42:54.017Z,41.50
2023-01-24T05:45:58.104Z,41.60
2023-01-24T05:49:00.254Z,41.10
2023-01-24T05:52:02.224Z,41.30
2023-01-24T05:55:19.534Z,41.60
2023-01-24T05:58:24.826Z,41.80
2023-01-24T06:01:31.603Z,41.40
2023-01-24T06:04:33.735Z,41.40
2023-01-24T06:07:35.400Z,41.50
2023-01-24T06:10:36.818Z,41.80
2023-01-24T06:13:41.250Z,41.30
2023-01-24T06:16:43.602Z,41.50
2023-01-24T06:19:45.962Z,41.20
2023-01-24T06:22:51.410Z,41.70
2023-01-24T06:25:53.793Z,41.30
2023-01-24T06:28:55.298Z,41.40
2023-01-24T06:32:03.543Z,41.40
2023-01-24T06:35:11.752Z,41.30
2023-01-24T06:38:18.605Z,41.40
2023-01-24T06:41:20.108Z,41.60
2023-01-24T06:44:21.680Z,41.30
2023-01-24T06:47:25.417Z,41.70
2023-01-24T06:50:31.561Z,41.30
2023-01-24T06:53:32.969Z,41.60
2023-01-24T06:56:34.246Z,41.50
2023-01-24T06:59:36.558Z,41.60
2023-01-24T07:02:37.852Z,41.30
2023-01-24T07:05:39.670Z,41.80
2023-01-24T07:08:41.043Z,41.30
2023-01-24T07:11:42.352Z,41.70
2023-01-24T07:14:44.192Z,41.40
2023-01-24T07:17:45.688Z,41.80
2023-01-24T07:20:47.830Z,41.30
2023-01-24T07:23:56.356Z,41.50
2023-01-24T07:26:59.093Z,41.20
2023-01-24T07:30:00.527Z,41.40
2023-01-24T07:33:01.923Z,40.80
2023-01-24T07:36:11.250Z,41.50
2023-01-24T07:39:13.101Z,40.90
2023-01-24T07:42:14.487Z,41.40
2023-01-24T07:45:15.760Z,40.70
2023-01-24T07:48:17.073Z,41.60
2023-01-24T07:51:19.084Z,41.00
2023-01-24T07:54:21.468Z,41.00
2023-01-24T07:57:22.718Z,40.70
2023-01-24T08:00:24.231Z,41.40
2023-01-24T08:03:25.836Z,40.90
2023-01-24T08:06:27.710Z,40.80
2023-01-24T08:09:29.613Z,40.70
2023-01-24T08:12:31.031Z,38.00
2023-01-24T08:15:32.315Z,40.70
2023-01-24T08:18:36.324Z,40.90
2023-01-24T08:21:39.444Z,40.60
2023-01-24T08:24:40.854Z,41.20
2023-01-24T08:27:42.995Z,39.90
2023-01-24T08:30:44.331Z,41.00
2023-01-24T08:33:46.960Z,40.70
2023-01-24T08:36:48.903Z,40.60
2023-01-24T08:39:50.226Z,40.50
2023-01-24T08:42:51.685Z,40.90
2023-01-24T08:45:54.228Z,40.40
2023-01-24T08:48:55.528Z,40.50
2023-01-24T08:51:59.179Z,40.60
2023-01-24T08:55:00.527Z,40.60
2023-01-24T08:58:01.967Z,40.50
2023-01-24T09:01:05.779Z,40.70
2023-01-24T09:04:08.279Z,40.40
2023-01-24T09:07:11.501Z,40.70
2023-01-24T09:10:12.804Z,40.70
2023-01-24T09:13:14.231Z,41.00
2023-01-24T09:16:15.541Z,40.20
2023-01-24T09:19:16.944Z,40.80
2023-01-24T09:22:20.010Z,40.30
2023-01-24T09:25:22.868Z,40.60
2023-01-24T09:28:24.362Z,40.60
2023-01-24T09:31:25.774Z,40.90
2023-01-24T09:34:27.190Z,40.30
2023-01-24T09:37:29.089Z,41.00
2023-01-24T09:40:34.374Z,40.60
2023-01-24T09:43:45.811Z,40.80
2023-01-24T09:46:49.031Z,40.60
2023-01-24T09:49:52.769Z,40.40
2023-01-24T09:52:56.228Z,40.30
2023-01-24T09:55:58.794Z,40.80
2023-01-24T09:59:10.550Z,40.30
2023-01-24T10:02:15.654Z,40.60
2023-01-24T10:05:18.235Z,40.30
2023-01-24T10:08:25.561Z,40.60
2023-01-24T10:11:32.692Z,40.50
2023-01-24T10:14:42.946Z,40.70
2023-01-24T10:17:52.578Z,40.50
2023-01-24T10:21:00.655Z,40.70
2023-01-24T10:24:05.175Z,40.40
2023-01-24T10:27:13.485Z,40.40
2023-01-24T10:30:16.827Z,40.40
2023-01-24T10:33:18.632Z,40.70
2023-01-24T10:36:24.613Z,41.30
2023-01-24T10:39:27.596Z,40.90
2023-01-24T10:56:21.205Z,38.00
2023-01-24T10:59:23.110Z,38.10
2023-01-24T11:13:46.414Z,38.00
2023-01-24T11:16:49.119Z,41.10
2023-01-24T11:19:57.905Z,40.40
2023-01-24T11:23:03.359Z,40.70
2023-01-24T11:26:05.472Z,40.30
2023-01-24T11:29:16.193Z,40.80
2023-01-24T11:32:26.148Z,40.70
2023-01-24T11:35:29.933Z,40.70
2023-01-24T11:38:34.180Z,40.40
2023-01-24T11:41:40.177Z,40.50
2023-01-24T11:44:56.122Z,40.60
2023-01-24T11:48:03.928Z,40.30
2023-01-24T11:51:13.642Z,40.40
2023-01-24T11:54:23.288Z,40.50
2023-01-24T11:57:31.266Z,40.40
2023-01-24T12:00:35.662Z,40.60
2023-01-24T12:03:45.478Z,40.30
2023-01-24T12:06:50.091Z,40.40
2023-01-24T12:09:55.187Z,40.50
2023-01-24T12:13:03.735Z,40.50
2023-01-24T12:16:13.758Z,40.40
2023-01-24T12:19:27.667Z,40.40
2023-01-24T12:22:29.979Z,40.00
2023-01-24T12:32:29.287Z,37.70
2023-01-24T12:35:32.653Z,39.00
2023-01-24T12:38:36.713Z,37.50
2023-01-24T12:41:38.304Z,40.20
2023-01-24T12:44:43.225Z,40.30
2023-01-24T12:47:47.551Z,40.20
2023-01-24T12:50:52.806Z,40.40
2023-01-24T12:53:58.344Z,39.70
2023-01-24T12:57:03.063Z,38.30
2023-01-24T13:00:10.076Z,39.90
2023-01-24T13:03:23.096Z,40.20
2023-01-24T13:06:29.994Z,39.70
2023-01-24T13:09:35.572Z,40.20
2023-01-24T13:12:37.189Z,39.90
2023-01-24T13:15:42.174Z,40.10
2023-01-24T13:18:48.858Z,40.20
2023-01-24T13:21:52.406Z,38.50
2023-01-24T13:25:01.755Z,39.80
2023-01-24T13:28:07.768Z,40.20
2023-01-24T13:31:13.525Z,39.80
2023-01-24T13:34:16.565Z,40.10
2023-01-24T13:37:20.449Z,40.30
2023-01-24T13:40:23.479Z,40.10
2023-01-24T13:43:43.069Z,39.80
2023-01-24T13:46:59.365Z,37.20
2023-01-24T13:50:10.835Z,39.70
2023-01-24T13:53:25.331Z,40.10
2023-01-24T13:56:28.180Z,39.90
2023-01-24T13:59:33.221Z,37.20
2023-01-24T14:02:40.657Z,37.10
2023-01-24T14:05:46.295Z,37.20
2023-01-24T14:08:56.692Z,39.60
2023-01-24T14:12:03.451Z,40.10
2023-01-24T14:15:05.977Z,39.90
2023-01-24T14:18:37.511Z,40.00
2023-01-24T14:21:47.451Z,39.80
2023-01-24T14:24:52.285Z,39.90
2023-01-24T14:27:55.433Z,39.60
2023-01-24T14:30:59.401Z,39.90
2023-01-24T14:34:04.836Z,39.70
2023-01-24T14:37:08.929Z,40.00
2023-01-24T14:40:11.842Z,39.60
2023-01-24T14:43:13.878Z,40.20
2023-01-24T14:46:20.513Z,39.50
2023-01-24T14:49:25.844Z,40.00
2023-01-24T14:52:28.134Z,39.80
2023-01-24T14:55:31.198Z,39.90
2023-01-24T14:58:33.099Z,37.10
2023-01-24T15:01:37.011Z,40.10
2023-01-24T15:04:45.141Z,36.80
2023-01-24T15:07:46.645Z,39.70
2023-01-24T15:10:53.230Z,39.40
2023-01-24T15:13:58.245Z,40.00
2023-01-24T15:16:59.762Z,39.60
2023-01-24T15:20:07.690Z,40.00
2023-01-24T15:23:16.728Z,39.60
2023-01-24T15:26:22.467Z,36.90
2023-01-24T15:29:38.613Z,39.80
2023-01-24T15:32:41.659Z,39.90
2023-01-24T15:35:45.659Z,39.50
2023-01-24T15:50:39.140Z,37.00
2023-01-24T15:53:41.090Z,40.10
2023-01-24T15:56:52.148Z,40.00
2023-01-24T16:03:18.749Z,36.90
2023-01-24T16:06:20.694Z,37.50
2023-01-24T16:12:53.592Z,37.10
2023-01-24T16:15:55.026Z,36.90
2023-01-24T16:18:56.361Z,39.40
2023-01-24T16:21:58.301Z,40.00
2023-01-24T16:24:59.739Z,39.90
2023-01-24T16:28:22.153Z,39.60
2023-01-24T16:31:24.001Z,36.90
2023-01-24T16:34:25.452Z,38.60
2023-01-24T16:37:27.279Z,40.10
2023-01-24T16:40:28.528Z,39.70
2023-01-24T16:43:30.366Z,40.20
2023-01-24T16:46:32.656Z,39.50
2023-01-24T16:49:33.957Z,39.70
2023-01-24T16:52:35.899Z,39.50
2023-01-24T16:55:38.054Z,40.30
2023-01-24T16:58:40.048Z,39.60
2023-01-24T17:01:41.471Z,37.10
2023-01-24T17:04:42.799Z,39.50
2023-01-24T17:07:48.013Z,40.30
2023-01-24T17:10:49.279Z,39.80
2023-01-24T17:13:50.958Z,40.30
2023-01-24T17:16:52.260Z,39.50
2023-01-24T17:19:53.747Z,40.40
2023-01-24T17:22:55.730Z,39.80
2023-01-24T17:26:01.137Z,39.80
2023-01-24T17:29:03.057Z,39.80
2023-01-24T17:32:04.492Z,40.10
2023-01-24T17:35:06.602Z,39.80
2023-01-24T17:38:09.955Z,40.00
2023-01-24T17:41:12.023Z,40.00
2023-01-24T17:44:16.438Z,40.00
2023-01-24T17:47:17.877Z,39.00
2023-01-24T17:50:19.463Z,40.50
2023-01-24T17:53:21.400Z,40.00
2023-01-24T17:56:22.728Z,40.50
2023-01-24T17:59:24.104Z,40.20
2023-01-24T18:02:25.436Z,40.70
2023-01-24T18:05:26.841Z,40.20
2023-01-24T18:08:28.775Z,40.70
2023-01-24T18:11:30.141Z,40.40
2023-01-24T18:14:33.085Z,40.50
2023-01-24T18:17:34.451Z,40.50
2023-01-24T18:20:37.828Z,40.50
2023-01-24T18:23:39.910Z,40.10
2023-01-24T18:26:41.335Z,40.50
2023-01-24T18:29:42.623Z,40.40
2023-01-24T18:32:43.920Z,40.70
2023-01-24T18:35:45.307Z,40.30
2023-01-24T18:38:47.157Z,40.60
2023-01-24T18:41:48.472Z,40.40
2023-01-24T18:44:49.832Z,40.70
2023-01-24T18:47:51.588Z,40.40
2023-01-24T18:50:52.987Z,40.80
2023-01-24T18:53:54.883Z,40.60
2023-01-24T18:56:56.983Z,41.00
2023-01-24T18:59:58.375Z,38.60
2023-01-24T19:02:59.654Z,41.00
2023-01-24T19:06:00.960Z,40.50
2023-01-24T19:09:04.884Z,41.10
2023-01-24T19:12:06.349Z,40.90
2023-01-24T19:15:08.682Z,40.50
2023-01-24T19:18:10.158Z,40.60
2023-01-24T19:21:11.595Z,41.10
2023-01-24T19:24:14.022Z,40.90
2023-01-24T19:27:16.144Z,40.90
2023-01-24T19:30:17.577Z,40.70
2023-01-24T19:33:18.881Z,40.40
2023-01-24T19:36:23.087Z,40.70
2023-01-24T19:39:25.601Z,40.80
2023-01-24T19:42:26.846Z,40.90
2023-01-24T19:45:28.195Z,41.20
2023-01-24T19:48:29.778Z,40.60
2023-01-24T19:51:31.103Z,41.00
2023-01-24T19:54:34.186Z,40.70
2023-01-24T19:57:35.527Z,39.70
2023-01-24T20:00:37.472Z,41.00
2023-01-24T20:03:38.831Z,41.00
2023-01-24T20:06:40.336Z,40.30
2023-01-24T20:09:42.309Z,39.40
2023-01-24T20:12:43.751Z,41.30
2023-01-24T20:15:45.078Z,41.30
2023-01-24T20:18:48.264Z,40.70
2023-01-24T20:21:49.577Z,41.20
2023-01-24T20:24:51.475Z,40.60
2023-01-24T20:27:53.871Z,41.20
2023-01-24T20:30:59.075Z,40.90
2023-01-24T20:34:00.514Z,41.10
2023-01-24T20:37:01.803Z,41.20
2023-01-24T20:40:05.921Z,41.30
2023-01-24T20:43:07.363Z,40.90
2023-01-24T20:46:11.605Z,41.40
2023-01-24T20:49:12.870Z,40.80
2023-01-24T20:52:14.117Z,41.20
2023-01-24T20:55:16.203Z,41.10
2023-01-24T20:58:18.305Z,41.40
2023-01-24T21:01:20.275Z,41.00
2023-01-24T21:04:21.947Z,41.20
2023-01-24T21:07:23.230Z,41.30
2023-01-24T21:10:25.139Z,41.10
2023-01-24T21:13:39.169Z,41.00
2023-01-24T21:16:42.305Z,40.80
2023-01-24T21:19:43.717Z,41.10
2023-01-24T21:22:47.618Z,41.30
2023-01-24T21:25:49.605Z,40.90
2023-01-24T21:28:51.206Z,41.10
2023-01-24T21:31:53.215Z,41.00
2023-01-24T21:34:54.583Z,41.60
2023-01-24T21:37:55.857Z,41.20
2023-01-24T21:41:12.754Z,41.10
2023-01-24T21:44:14.147Z,41.00
2023-01-24T21:47:17.461Z,41.50
2023-01-24T21:50:19.475Z,40.90
2023-01-24T21:53:35.389Z,41.30
2023-01-24T21:56:52.817Z,41.10
2023-01-24T21:59:54.171Z,41.50
2023-01-24T22:06:19.640Z,38.70
2023-01-24T22:09:21.053Z,38.60
2023-01-24T22:12:23.246Z,41.00
2023-01-24T22:15:24.727Z,41.00
2023-01-24T22:18:26.250Z,41.30
2023-01-24T22:21:34.528Z,41.30
2023-01-24T22:24:41.791Z,41.00
2023-01-24T22:27:44.646Z,40.80
2023-01-24T22:30:46.887Z,39.60
2023-01-24T22:33:48.308Z,41.20
2023-01-24T22:36:51.897Z,41.00
2023-01-24T22:39:53.408Z,41.10
2023-01-24T22:42:56.494Z,41.10
2023-01-24T22:45:57.736Z,41.70
2023-01-24T22:48:59.000Z,41.30
2023-01-24T22:52:00.227Z,41.20
2023-01-24T22:55:01.565Z,41.30
2023-01-24T22:58:03.625Z,41.30
2023-01-24T23:01:05.375Z,41.30
2023-01-24T23:04:06.744Z,41.30
2023-01-24T23:07:08.074Z,41.30
2023-01-24T23:10:09.795Z,41.30
2023-01-24T23:13:21.745Z,41.20
2023-01-24T23:16:27.147Z,41.50
2023-01-24T23:19:41.733Z,41.30
2023-01-24T23:22:43.042Z,41.40
2023-01-24T23:29:29.661Z,38.70
2023-01-24T23:32:36.485Z,41.40
2023-01-24T23:35:38.403Z,41.10
2023-01-24T23:38:39.640Z,41.50
2023-01-24T23:41:40.882Z,41.30
2023-01-24T23:44:42.112Z,41.20
2023-01-24T23:48:08.622Z,41.40
2023-01-24T23:51:10.488Z,38.70
2023-01-24T23:54:12.380Z,41.90
2023-01-24T23:57:14.007Z,40.20
